sensor_id;sensor_type;location;lat;lon;timestamp;temperature;humidity
31661;DHT22;18267;52.234;7.444;2022-07-15T00:01:52;15.90;99.90
31661;DHT22;18267;52.234;7.444;2022-07-15T00:04:18;15.80;99.90
31661;DHT22;18267;52.234;7.444;2022-07-15T00:06:43;15.70;99.90
31661;DHT22;18267;52.234;7.444;2022-07-15T00:09:09;15.60;99.90
31661;DHT22;18267;52.234;7.444;2022-07-15T00:11:34;15.50;99.90
31661;DHT22;18267;52.234;7.444;2022-07-15T00:14:01;15.30;99.90
31661;DHT22;18267;52.234;7.444;2022-07-15T00:16:27;15.40;99.90
31661;DHT22;18267;52.234;7.444;2022-07-15T00:18:52;15.40;99.90
31661;DHT22;18267;52.234;7.444;2022-07-15T00:21:18;15.40;99.90
31661;DHT22;18267;52.234;7.444;2022-07-15T00:23:43;15.30;99.90
31661;DHT22;18267;52.234;7.444;2022-07-15T00:26:09;15.30;99.90
31661;DHT22;18267;52.234;7.444;2022-07-15T00:28:35;15.30;99.90
31661;DHT22;18267;52.234;7.444;2022-07-15T00:31:01;15.40;99.90
31661;DHT22;18267;52.234;7.444;2022-07-15T00:33:26;15.40;99.90
31661;DHT22;18267;52.234;7.444;2022-07-15T00:35:52;15.40;99.90
31661;DHT22;18267;52.234;7.444;2022-07-15T00:38:18;15.40;99.90
31661;DHT22;18267;52.234;7.444;2022-07-15T00:40:45;15.40;99.90
31661;DHT22;18267;52.234;7.444;2022-07-15T00:43:13;15.50;99.90
31661;DHT22;18267;52.234;7.444;2022-07-15T00:45:39;15.50;99.90
31661;DHT22;18267;52.234;7.444;2022-07-15T00:48:05;15.40;99.90
31661;DHT22;18267;52.234;7.444;2022-07-15T00:50:31;15.30;99.90
31661;DHT22;18267;52.234;7.444;2022-07-15T00:53:04;15.20;99.90
31661;DHT22;18267;52.234;7.444;2022-07-15T00:55:37;15.30;99.90
31661;DHT22;18267;52.234;7.444;2022-07-15T00:58:04;15.30;99.90
31661;DHT22;18267;52.234;7.444;2022-07-15T01:00:31;15.40;99.90
31661;DHT22;18267;52.234;7.444;2022-07-15T01:02:59;15.40;99.90
31661;DHT22;18267;52.234;7.444;2022-07-15T01:05:25;15.40;99.90
31661;DHT22;18267;52.234;7.444;2022-07-15T01:07:52;15.40;99.90
31661;DHT22;18267;52.234;7.444;2022-07-15T01:10:19;15.40;99.90
31661;DHT22;18267;52.234;7.444;2022-07-15T01:12:47;15.40;99.90
31661;DHT22;18267;52.234;7.444;2022-07-15T01:15:14;15.30;99.90
31661;DHT22;18267;52.234;7.444;2022-07-15T01:17:39;15.30;99.90
31661;DHT22;18267;52.234;7.444;2022-07-15T01:20:06;15.30;99.90
31661;DHT22;18267;52.234;7.444;2022-07-15T01:22:32;15.30;99.90
31661;DHT22;18267;52.234;7.444;2022-07-15T01:24:58;15.30;99.90
31661;DHT22;18267;52.234;7.444;2022-07-15T01:27:24;15.30;99.90
31661;DHT22;18267;52.234;7.444;2022-07-15T01:29:50;15.20;99.90
31661;DHT22;18267;52.234;7.444;2022-07-15T01:32:15;15.20;99.90
31661;DHT22;18267;52.234;7.444;2022-07-15T01:34:41;15.10;99.90
31661;DHT22;18267;52.234;7.444;2022-07-15T01:37:07;15.00;99.90
31661;DHT22;18267;52.234;7.444;2022-07-15T01:39:33;15.00;99.90
31661;DHT22;18267;52.234;7.444;2022-07-15T01:41:58;14.90;99.90
31661;DHT22;18267;52.234;7.444;2022-07-15T01:44:24;14.80;99.90
31661;DHT22;18267;52.234;7.444;2022-07-15T01:46:49;14.80;99.90
31661;DHT22;18267;52.234;7.444;2022-07-15T01:49:15;14.70;99.90
31661;DHT22;18267;52.234;7.444;2022-07-15T01:51:47;14.70;99.90
31661;DHT22;18267;52.234;7.444;2022-07-15T01:54:13;14.70;99.90
31661;DHT22;18267;52.234;7.444;2022-07-15T01:56:38;14.70;99.90
31661;DHT22;18267;52.234;7.444;2022-07-15T01:59:04;14.60;99.90
31661;DHT22;18267;52.234;7.444;2022-07-15T02:01:29;14.70;99.90
31661;DHT22;18267;52.234;7.444;2022-07-15T02:03:55;14.60;99.90
31661;DHT22;18267;52.234;7.444;2022-07-15T02:06:21;14.70;99.90
31661;DHT22;18267;52.234;7.444;2022-07-15T02:08:46;14.60;99.90
31661;DHT22;18267;52.234;7.444;2022-07-15T02:11:12;14.50;99.90
31661;DHT22;18267;52.234;7.444;2022-07-15T02:13:37;14.40;99.90
31661;DHT22;18267;52.234;7.444;2022-07-15T02:16:03;14.40;99.90
31661;DHT22;18267;52.234;7.444;2022-07-15T02:18:29;14.30;99.90
31661;DHT22;18267;52.234;7.444;2022-07-15T02:20:55;14.30;99.90
31661;DHT22;18267;52.234;7.444;2022-07-15T02:23:20;14.40;99.90
31661;DHT22;18267;52.234;7.444;2022-07-15T02:25:46;14.40;99.90
31661;DHT22;18267;52.234;7.444;2022-07-15T02:28:11;14.60;99.90
31661;DHT22;18267;52.234;7.444;2022-07-15T02:30:40;14.50;99.90
31661;DHT22;18267;52.234;7.444;2022-07-15T02:33:07;14.60;99.90
31661;DHT22;18267;52.234;7.444;2022-07-15T02:35:32;14.40;99.90
31661;DHT22;18267;52.234;7.444;2022-07-15T02:37:58;14.30;99.90
31661;DHT22;18267;52.234;7.444;2022-07-15T02:40:25;14.30;99.90
31661;DHT22;18267;52.234;7.444;2022-07-15T02:42:56;14.30;99.90
31661;DHT22;18267;52.234;7.444;2022-07-15T02:45:24;14.30;99.90
31661;DHT22;18267;52.234;7.444;2022-07-15T02:47:51;14.30;99.90
31661;DHT22;18267;52.234;7.444;2022-07-15T02:50:18;14.30;99.90
31661;DHT22;18267;52.234;7.444;2022-07-15T02:52:44;14.40;99.90
31661;DHT22;18267;52.234;7.444;2022-07-15T02:55:11;14.40;99.90
31661;DHT22;18267;52.234;7.444;2022-07-15T02:57:37;14.20;99.90
31661;DHT22;18267;52.234;7.444;2022-07-15T03:00:11;14.20;99.90
31661;DHT22;18267;52.234;7.444;2022-07-15T03:02:37;14.00;99.90
31661;DHT22;18267;52.234;7.444;2022-07-15T03:05:04;14.00;99.90
31661;DHT22;18267;52.234;7.444;2022-07-15T03:07:29;13.90;99.90
31661;DHT22;18267;52.234;7.444;2022-07-15T03:09:55;13.90;99.90
31661;DHT22;18267;52.234;7.444;2022-07-15T03:12:21;13.90;99.90
31661;DHT22;18267;52.234;7.444;2022-07-15T03:14:47;13.80;99.90
31661;DHT22;18267;52.234;7.444;2022-07-15T03:17:12;14.00;99.90
31661;DHT22;18267;52.234;7.444;2022-07-15T03:19:38;14.00;99.90
31661;DHT22;18267;52.234;7.444;2022-07-15T03:22:04;14.10;99.90
31661;DHT22;18267;52.234;7.444;2022-07-15T03:24:29;14.20;99.90
31661;DHT22;18267;52.234;7.444;2022-07-15T03:26:55;14.10;99.90
31661;DHT22;18267;52.234;7.444;2022-07-15T03:29:20;14.10;99.90
31661;DHT22;18267;52.234;7.444;2022-07-15T03:31:46;14.00;99.90
31661;DHT22;18267;52.234;7.444;2022-07-15T03:34:12;13.90;99.90
31661;DHT22;18267;52.234;7.444;2022-07-15T03:36:38;13.90;99.90
31661;DHT22;18267;52.234;7.444;2022-07-15T03:39:05;14.10;99.90
31661;DHT22;18267;52.234;7.444;2022-07-15T03:41:31;14.20;99.90
31661;DHT22;18267;52.234;7.444;2022-07-15T03:43:56;14.20;99.90
31661;DHT22;18267;52.234;7.444;2022-07-15T03:46:22;14.30;99.90
31661;DHT22;18267;52.234;7.444;2022-07-15T03:48:47;14.30;99.90
31661;DHT22;18267;52.234;7.444;2022-07-15T03:51:13;14.40;99.90
31661;DHT22;18267;52.234;7.444;2022-07-15T03:53:38;14.30;99.90
31661;DHT22;18267;52.234;7.444;2022-07-15T03:56:04;14.30;99.90
31661;DHT22;18267;52.234;7.444;2022-07-15T03:58:30;14.30;99.90
31661;DHT22;18267;52.234;7.444;2022-07-15T04:00:55;14.30;99.90
31661;DHT22;18267;52.234;7.444;2022-07-15T04:03:21;14.30;99.90
31661;DHT22;18267;52.234;7.444;2022-07-15T04:05:46;14.40;99.90
31661;DHT22;18267;52.234;7.444;2022-07-15T04:08:12;14.30;99.90
31661;DHT22;18267;52.234;7.444;2022-07-15T04:10:37;14.30;99.90
31661;DHT22;18267;52.234;7.444;2022-07-15T04:13:03;14.50;99.90
31661;DHT22;18267;52.234;7.444;2022-07-15T04:15:29;14.60;99.90
31661;DHT22;18267;52.234;7.444;2022-07-15T04:17:54;14.60;99.90
31661;DHT22;18267;52.234;7.444;2022-07-15T04:20:21;14.60;99.90
31661;DHT22;18267;52.234;7.444;2022-07-15T04:22:46;14.70;99.90
31661;DHT22;18267;52.234;7.444;2022-07-15T04:25:16;14.80;99.90
31661;DHT22;18267;52.234;7.444;2022-07-15T04:27:42;14.90;99.90
31661;DHT22;18267;52.234;7.444;2022-07-15T04:30:09;14.90;99.90
31661;DHT22;18267;52.234;7.444;2022-07-15T04:32:35;14.90;99.90
31661;DHT22;18267;52.234;7.444;2022-07-15T04:35:01;14.90;99.90
31661;DHT22;18267;52.234;7.444;2022-07-15T04:37:27;14.90;99.90
31661;DHT22;18267;52.234;7.444;2022-07-15T04:39:54;14.90;99.90
31661;DHT22;18267;52.234;7.444;2022-07-15T04:42:21;14.90;99.90
31661;DHT22;18267;52.234;7.444;2022-07-15T04:44:47;15.00;99.90
31661;DHT22;18267;52.234;7.444;2022-07-15T04:47:13;15.00;99.90
31661;DHT22;18267;52.234;7.444;2022-07-15T04:49:39;15.10;99.90
31661;DHT22;18267;52.234;7.444;2022-07-15T04:52:23;15.00;99.90
31661;DHT22;18267;52.234;7.444;2022-07-15T04:54:50;15.00;99.90
31661;DHT22;18267;52.234;7.444;2022-07-15T04:57:15;15.10;99.90
31661;DHT22;18267;52.234;7.444;2022-07-15T04:59:41;15.10;99.90
31661;DHT22;18267;52.234;7.444;2022-07-15T05:02:07;15.20;99.90
31661;DHT22;18267;52.234;7.444;2022-07-15T05:04:32;15.30;99.90
31661;DHT22;18267;52.234;7.444;2022-07-15T05:06:59;15.40;99.90
31661;DHT22;18267;52.234;7.444;2022-07-15T05:09:24;15.40;99.90
31661;DHT22;18267;52.234;7.444;2022-07-15T05:11:50;15.50;99.90
31661;DHT22;18267;52.234;7.444;2022-07-15T05:14:15;15.60;99.90
31661;DHT22;18267;52.234;7.444;2022-07-15T05:16:41;15.60;99.90
31661;DHT22;18267;52.234;7.444;2022-07-15T05:19:06;15.60;99.90
31661;DHT22;18267;52.234;7.444;2022-07-15T05:21:32;15.60;99.90
31661;DHT22;18267;52.234;7.444;2022-07-15T05:23:57;15.70;99.90
31661;DHT22;18267;52.234;7.444;2022-07-15T05:26:23;15.80;99.90
31661;DHT22;18267;52.234;7.444;2022-07-15T05:28:49;15.90;99.90
31661;DHT22;18267;52.234;7.444;2022-07-15T05:31:14;15.90;99.90
31661;DHT22;18267;52.234;7.444;2022-07-15T05:33:40;16.00;99.90
31661;DHT22;18267;52.234;7.444;2022-07-15T05:36:14;16.00;99.90
31661;DHT22;18267;52.234;7.444;2022-07-15T05:38:41;16.00;99.90
31661;DHT22;18267;52.234;7.444;2022-07-15T05:41:07;16.00;99.90
31661;DHT22;18267;52.234;7.444;2022-07-15T05:43:32;16.00;99.90
31661;DHT22;18267;52.234;7.444;2022-07-15T05:45:58;16.10;99.90
31661;DHT22;18267;52.234;7.444;2022-07-15T05:48:24;16.10;99.90
31661;DHT22;18267;52.234;7.444;2022-07-15T05:50:49;16.10;99.90
31661;DHT22;18267;52.234;7.444;2022-07-15T05:53:15;16.00;99.90
31661;DHT22;18267;52.234;7.444;2022-07-15T05:55:41;16.10;99.90
31661;DHT22;18267;52.234;7.444;2022-07-15T05:58:07;16.30;99.90
31661;DHT22;18267;52.234;7.444;2022-07-15T06:00:34;16.20;99.90
31661;DHT22;18267;52.234;7.444;2022-07-15T06:03:15;16.40;99.90
31661;DHT22;18267;52.234;7.444;2022-07-15T06:05:40;16.50;99.90
31661;DHT22;18267;52.234;7.444;2022-07-15T06:08:06;16.50;99.90
31661;DHT22;18267;52.234;7.444;2022-07-15T06:10:32;16.60;99.90
31661;DHT22;18267;52.234;7.444;2022-07-15T06:12:58;16.60;99.90
31661;DHT22;18267;52.234;7.444;2022-07-15T06:15:23;16.70;99.90
31661;DHT22;18267;52.234;7.444;2022-07-15T06:17:49;16.60;99.90
31661;DHT22;18267;52.234;7.444;2022-07-15T06:20:15;16.70;99.90
31661;DHT22;18267;52.234;7.444;2022-07-15T06:22:41;16.60;99.90
31661;DHT22;18267;52.234;7.444;2022-07-15T06:25:07;16.60;99.90
31661;DHT22;18267;52.234;7.444;2022-07-15T06:27:34;16.60;99.90
31661;DHT22;18267;52.234;7.444;2022-07-15T06:29:59;16.70;99.90
31661;DHT22;18267;52.234;7.444;2022-07-15T06:32:25;16.90;99.90
31661;DHT22;18267;52.234;7.444;2022-07-15T06:34:51;16.90;99.90
31661;DHT22;18267;52.234;7.444;2022-07-15T06:37:16;16.90;99.90
31661;DHT22;18267;52.234;7.444;2022-07-15T06:39:43;16.90;99.90
31661;DHT22;18267;52.234;7.444;2022-07-15T06:42:08;16.90;99.90
31661;DHT22;18267;52.234;7.444;2022-07-15T06:44:35;17.00;99.90
31661;DHT22;18267;52.234;7.444;2022-07-15T06:47:02;17.00;99.90
31661;DHT22;18267;52.234;7.444;2022-07-15T06:49:31;17.00;99.90
31661;DHT22;18267;52.234;7.444;2022-07-15T06:52:02;17.10;99.90
31661;DHT22;18267;52.234;7.444;2022-07-15T06:54:28;17.10;99.90
31661;DHT22;18267;52.234;7.444;2022-07-15T06:56:54;17.10;99.90
31661;DHT22;18267;52.234;7.444;2022-07-15T06:59:19;17.20;99.90
31661;DHT22;18267;52.234;7.444;2022-07-15T07:01:46;17.20;99.90
31661;DHT22;18267;52.234;7.444;2022-07-15T07:04:12;17.10;99.90
31661;DHT22;18267;52.234;7.444;2022-07-15T07:06:37;17.20;99.90
31661;DHT22;18267;52.234;7.444;2022-07-15T07:09:03;17.30;99.90
31661;DHT22;18267;52.234;7.444;2022-07-15T07:11:29;17.30;99.90
31661;DHT22;18267;52.234;7.444;2022-07-15T07:13:55;17.30;99.90
31661;DHT22;18267;52.234;7.444;2022-07-15T07:16:21;17.30;99.90
31661;DHT22;18267;52.234;7.444;2022-07-15T07:18:46;17.30;99.90
31661;DHT22;18267;52.234;7.444;2022-07-15T07:21:13;17.40;99.90
31661;DHT22;18267;52.234;7.444;2022-07-15T07:23:39;17.40;99.90
31661;DHT22;18267;52.234;7.444;2022-07-15T07:26:06;17.30;99.90
31661;DHT22;18267;52.234;7.444;2022-07-15T07:28:32;17.30;99.90
31661;DHT22;18267;52.234;7.444;2022-07-15T07:31:01;17.30;99.90
31661;DHT22;18267;52.234;7.444;2022-07-15T07:33:27;17.30;99.90
31661;DHT22;18267;52.234;7.444;2022-07-15T07:35:53;17.30;99.90
31661;DHT22;18267;52.234;7.444;2022-07-15T07:38:19;17.40;99.90
31661;DHT22;18267;52.234;7.444;2022-07-15T07:40:45;17.50;99.90
31661;DHT22;18267;52.234;7.444;2022-07-15T07:43:18;17.60;99.90
31661;DHT22;18267;52.234;7.444;2022-07-15T07:45:44;17.60;99.90
31661;DHT22;18267;52.234;7.444;2022-07-15T07:48:10;17.60;99.90
31661;DHT22;18267;52.234;7.444;2022-07-15T07:50:37;17.60;99.90
31661;DHT22;18267;52.234;7.444;2022-07-15T07:53:02;17.60;99.90
31661;DHT22;18267;52.234;7.444;2022-07-15T07:55:28;17.70;99.90
31661;DHT22;18267;52.234;7.444;2022-07-15T07:57:55;17.90;99.90
31661;DHT22;18267;52.234;7.444;2022-07-15T08:00:23;17.80;99.90
31661;DHT22;18267;52.234;7.444;2022-07-15T08:02:49;17.80;99.90
31661;DHT22;18267;52.234;7.444;2022-07-15T08:05:16;17.90;99.90
31661;DHT22;18267;52.234;7.444;2022-07-15T08:07:41;17.80;99.90
31661;DHT22;18267;52.234;7.444;2022-07-15T08:10:09;17.60;99.90
31661;DHT22;18267;52.234;7.444;2022-07-15T08:12:36;17.70;99.90
31661;DHT22;18267;52.234;7.444;2022-07-15T08:15:08;17.80;99.90
31661;DHT22;18267;52.234;7.444;2022-07-15T08:17:34;17.70;99.90
31661;DHT22;18267;52.234;7.444;2022-07-15T08:20:00;17.80;99.90
31661;DHT22;18267;52.234;7.444;2022-07-15T08:22:25;17.70;99.90
31661;DHT22;18267;52.234;7.444;2022-07-15T08:25:01;17.80;99.90
31661;DHT22;18267;52.234;7.444;2022-07-15T08:27:26;17.90;99.90
31661;DHT22;18267;52.234;7.444;2022-07-15T08:29:52;18.00;99.90
31661;DHT22;18267;52.234;7.444;2022-07-15T08:32:18;18.00;99.90
31661;DHT22;18267;52.234;7.444;2022-07-15T08:34:44;18.00;99.90
31661;DHT22;18267;52.234;7.444;2022-07-15T08:37:10;18.00;99.90
31661;DHT22;18267;52.234;7.444;2022-07-15T08:39:36;18.20;99.70
31661;DHT22;18267;52.234;7.444;2022-07-15T08:42:05;18.20;99.30
31661;DHT22;18267;52.234;7.444;2022-07-15T08:44:37;18.30;99.90
31661;DHT22;18267;52.234;7.444;2022-07-15T08:47:04;18.50;99.30
31661;DHT22;18267;52.234;7.444;2022-07-15T08:49:32;18.50;99.10
31661;DHT22;18267;52.234;7.444;2022-07-15T08:51:59;18.40;99.50
31661;DHT22;18267;52.234;7.444;2022-07-15T08:54:26;18.40;99.70
31661;DHT22;18267;52.234;7.444;2022-07-15T08:56:52;18.40;99.40
31661;DHT22;18267;52.234;7.444;2022-07-15T08:59:17;18.50;99.50
31661;DHT22;18267;52.234;7.444;2022-07-15T09:01:45;18.60;98.20
31661;DHT22;18267;52.234;7.444;2022-07-15T09:04:12;18.70;98.60
31661;DHT22;18267;52.234;7.444;2022-07-15T09:06:38;18.80;98.20
31661;DHT22;18267;52.234;7.444;2022-07-15T09:11:54;19.10;97.70
31661;DHT22;18267;52.234;7.444;2022-07-15T09:14:21;19.00;97.10
31661;DHT22;18267;52.234;7.444;2022-07-15T09:16:47;19.00;97.80
31661;DHT22;18267;52.234;7.444;2022-07-15T09:19:12;19.10;97.10
31661;DHT22;18267;52.234;7.444;2022-07-15T09:21:41;18.90;97.10
31661;DHT22;18267;52.234;7.444;2022-07-15T09:24:17;18.70;97.30
31661;DHT22;18267;52.234;7.444;2022-07-15T09:26:44;18.80;97.20
31661;DHT22;18267;52.234;7.444;2022-07-15T09:29:09;18.90;97.00
31661;DHT22;18267;52.234;7.444;2022-07-15T09:31:58;18.80;96.30
31661;DHT22;18267;52.234;7.444;2022-07-15T09:35:04;18.60;96.90
31661;DHT22;18267;52.234;7.444;2022-07-15T09:37:57;18.60;97.30
31661;DHT22;18267;52.234;7.444;2022-07-15T09:40:23;18.60;96.70
31661;DHT22;18267;52.234;7.444;2022-07-15T09:43:15;18.50;97.30
31661;DHT22;18267;52.234;7.444;2022-07-15T09:45:41;18.60;97.80
31661;DHT22;18267;52.234;7.444;2022-07-15T09:48:07;18.70;97.80
31661;DHT22;18267;52.234;7.444;2022-07-15T09:50:35;18.70;97.70
31661;DHT22;18267;52.234;7.444;2022-07-15T09:53:03;18.70;97.90
31661;DHT22;18267;52.234;7.444;2022-07-15T09:55:30;18.60;97.80
31661;DHT22;18267;52.234;7.444;2022-07-15T09:57:56;18.60;98.50
31661;DHT22;18267;52.234;7.444;2022-07-15T10:00:24;18.70;98.10
31661;DHT22;18267;52.234;7.444;2022-07-15T10:02:51;18.80;96.80
31661;DHT22;18267;52.234;7.444;2022-07-15T10:05:16;18.80;97.40
31661;DHT22;18267;52.234;7.444;2022-07-15T10:07:43;19.00;97.80
31661;DHT22;18267;52.234;7.444;2022-07-15T10:10:09;19.20;97.80
31661;DHT22;18267;52.234;7.444;2022-07-15T10:19:00;19.50;97.00
31661;DHT22;18267;52.234;7.444;2022-07-15T10:27:15;19.30;97.10
31661;DHT22;18267;52.234;7.444;2022-07-15T10:29:46;19.30;96.20
31661;DHT22;18267;52.234;7.444;2022-07-15T10:32:12;19.30;96.10
31661;DHT22;18267;52.234;7.444;2022-07-15T10:34:38;19.40;96.10
31661;DHT22;18267;52.234;7.444;2022-07-15T10:37:13;19.40;96.10
31661;DHT22;18267;52.234;7.444;2022-07-15T10:39:56;19.50;96.60
31661;DHT22;18267;52.234;7.444;2022-07-15T10:42:24;19.60;97.10
31661;DHT22;18267;52.234;7.444;2022-07-15T10:47:25;19.70;95.70
31661;DHT22;18267;52.234;7.444;2022-07-15T10:49:51;19.70;96.20
31661;DHT22;18267;52.234;7.444;2022-07-15T10:52:20;19.80;96.10
31661;DHT22;18267;52.234;7.444;2022-07-15T11:00:33;20.30;95.00
31661;DHT22;18267;52.234;7.444;2022-07-15T11:03:06;20.40;95.50
31661;DHT22;18267;52.234;7.444;2022-07-15T11:05:33;20.50;94.50
31661;DHT22;18267;52.234;7.444;2022-07-15T11:07:59;20.50;93.60
31661;DHT22;18267;52.234;7.444;2022-07-15T11:10:25;20.20;93.40
31661;DHT22;18267;52.234;7.444;2022-07-15T11:15:18;19.90;94.60
31661;DHT22;18267;52.234;7.444;2022-07-15T11:17:46;20.10;94.90
31661;DHT22;18267;52.234;7.444;2022-07-15T11:20:21;20.10;94.20
31661;DHT22;18267;52.234;7.444;2022-07-15T11:22:52;20.20;93.80
31661;DHT22;18267;52.234;7.444;2022-07-15T11:25:32;20.30;93.90
31661;DHT22;18267;52.234;7.444;2022-07-15T11:28:13;20.50;93.10
31661;DHT22;18267;52.234;7.444;2022-07-15T11:30:47;20.70;93.20
31661;DHT22;18267;52.234;7.444;2022-07-15T11:33:17;20.80;93.90
31661;DHT22;18267;52.234;7.444;2022-07-15T11:35:53;21.10;92.50
31661;DHT22;18267;52.234;7.444;2022-07-15T11:38:21;21.20;92.40
31661;DHT22;18267;52.234;7.444;2022-07-15T11:40:51;21.00;92.20
31661;DHT22;18267;52.234;7.444;2022-07-15T11:43:35;20.80;92.30
31661;DHT22;18267;52.234;7.444;2022-07-15T11:46:20;20.80;92.30
31661;DHT22;18267;52.234;7.444;2022-07-15T11:48:48;20.50;91.60
31661;DHT22;18267;52.234;7.444;2022-07-15T11:51:14;20.30;91.60
31661;DHT22;18267;52.234;7.444;2022-07-15T11:53:43;20.30;92.30
31661;DHT22;18267;52.234;7.444;2022-07-15T11:56:11;20.20;91.90
31661;DHT22;18267;52.234;7.444;2022-07-15T11:58:43;20.20;92.00
31661;DHT22;18267;52.234;7.444;2022-07-15T12:01:11;20.20;92.00
31661;DHT22;18267;52.234;7.444;2022-07-15T12:03:46;20.30;92.40
31661;DHT22;18267;52.234;7.444;2022-07-15T12:08:48;20.60;92.60
31661;DHT22;18267;52.234;7.444;2022-07-15T12:13:44;20.70;92.20
31661;DHT22;18267;52.234;7.444;2022-07-15T12:16:10;20.60;91.70
31661;DHT22;18267;52.234;7.444;2022-07-15T12:18:36;20.50;91.90
31661;DHT22;18267;52.234;7.444;2022-07-15T12:21:02;20.30;91.60
31661;DHT22;18267;52.234;7.444;2022-07-15T12:23:28;20.40;91.30
31661;DHT22;18267;52.234;7.444;2022-07-15T12:26:09;20.30;91.70
31661;DHT22;18267;52.234;7.444;2022-07-15T12:28:35;20.50;91.80
31661;DHT22;18267;52.234;7.444;2022-07-15T12:31:03;20.40;91.80
31661;DHT22;18267;52.234;7.444;2022-07-15T12:33:34;20.30;91.70
31661;DHT22;18267;52.234;7.444;2022-07-15T12:36:20;20.20;92.20
31661;DHT22;18267;52.234;7.444;2022-07-15T12:39:16;20.30;92.80
31661;DHT22;18267;52.234;7.444;2022-07-15T12:41:44;20.30;92.90
31661;DHT22;18267;52.234;7.444;2022-07-15T12:44:11;20.30;92.90
31661;DHT22;18267;52.234;7.444;2022-07-15T12:47:00;20.30;92.20
31661;DHT22;18267;52.234;7.444;2022-07-15T12:52:17;20.60;92.80
31661;DHT22;18267;52.234;7.444;2022-07-15T12:54:43;20.70;92.80
31661;DHT22;18267;52.234;7.444;2022-07-15T12:57:38;20.80;92.00
31661;DHT22;18267;52.234;7.444;2022-07-15T13:02:32;20.90;92.50
31661;DHT22;18267;52.234;7.444;2022-07-15T13:05:17;21.00;92.20
31661;DHT22;18267;52.234;7.444;2022-07-15T13:07:43;21.00;92.10
31661;DHT22;18267;52.234;7.444;2022-07-15T13:10:08;21.10;91.60
31661;DHT22;18267;52.234;7.444;2022-07-15T13:12:34;21.20;90.80
31661;DHT22;18267;52.234;7.444;2022-07-15T13:14:59;21.20;90.80
31661;DHT22;18267;52.234;7.444;2022-07-15T13:17:25;21.00;90.30
31661;DHT22;18267;52.234;7.444;2022-07-15T13:19:50;20.80;89.70
31661;DHT22;18267;52.234;7.444;2022-07-15T13:22:16;20.70;90.90
31661;DHT22;18267;52.234;7.444;2022-07-15T13:24:42;20.70;91.50
31661;DHT22;18267;52.234;7.444;2022-07-15T13:27:07;20.80;91.70
31661;DHT22;18267;52.234;7.444;2022-07-15T13:29:33;21.00;91.90
31661;DHT22;18267;52.234;7.444;2022-07-15T13:31:58;21.00;91.10
31661;DHT22;18267;52.234;7.444;2022-07-15T13:34:24;21.00;90.70
31661;DHT22;18267;52.234;7.444;2022-07-15T13:36:50;20.90;90.20
31661;DHT22;18267;52.234;7.444;2022-07-15T13:39:15;20.70;91.00
31661;DHT22;18267;52.234;7.444;2022-07-15T13:41:41;20.70;91.00
31661;DHT22;18267;52.234;7.444;2022-07-15T13:44:06;20.60;90.80
31661;DHT22;18267;52.234;7.444;2022-07-15T13:46:32;20.40;91.20
31661;DHT22;18267;52.234;7.444;2022-07-15T13:48:58;20.40;91.50
31661;DHT22;18267;52.234;7.444;2022-07-15T13:51:23;20.50;91.30
31661;DHT22;18267;52.234;7.444;2022-07-15T13:53:53;20.60;91.10
31661;DHT22;18267;52.234;7.444;2022-07-15T13:56:20;20.70;90.90
31661;DHT22;18267;52.234;7.444;2022-07-15T13:58:45;20.70;91.00
31661;DHT22;18267;52.234;7.444;2022-07-15T14:01:11;20.60;91.00
31661;DHT22;18267;52.234;7.444;2022-07-15T14:03:37;20.50;90.70
31661;DHT22;18267;52.234;7.444;2022-07-15T14:06:04;20.40;90.90
31661;DHT22;18267;52.234;7.444;2022-07-15T14:08:29;20.40;91.10
31661;DHT22;18267;52.234;7.444;2022-07-15T14:10:55;20.50;91.30
31661;DHT22;18267;52.234;7.444;2022-07-15T14:13:21;20.50;91.20
31661;DHT22;18267;52.234;7.444;2022-07-15T14:15:46;20.70;91.50
31661;DHT22;18267;52.234;7.444;2022-07-15T14:18:12;20.80;91.80
31661;DHT22;18267;52.234;7.444;2022-07-15T14:20:37;21.00;91.30
31661;DHT22;18267;52.234;7.444;2022-07-15T14:23:03;21.00;91.00
31661;DHT22;18267;52.234;7.444;2022-07-15T14:25:29;21.00;91.20
31661;DHT22;18267;52.234;7.444;2022-07-15T14:27:56;21.00;91.00
31661;DHT22;18267;52.234;7.444;2022-07-15T14:30:22;21.10;91.10
31661;DHT22;18267;52.234;7.444;2022-07-15T14:32:48;21.10;91.40
31661;DHT22;18267;52.234;7.444;2022-07-15T14:35:13;21.20;92.20
31661;DHT22;18267;52.234;7.444;2022-07-15T14:37:39;21.20;91.90
31661;DHT22;18267;52.234;7.444;2022-07-15T14:40:06;21.40;91.50
31661;DHT22;18267;52.234;7.444;2022-07-15T14:42:32;21.40;91.60
31661;DHT22;18267;52.234;7.444;2022-07-15T14:44:58;21.50;91.60
31661;DHT22;18267;52.234;7.444;2022-07-15T14:47:24;21.50;91.10
31661;DHT22;18267;52.234;7.444;2022-07-15T14:49:49;21.50;91.10
31661;DHT22;18267;52.234;7.444;2022-07-15T14:52:15;21.50;91.30
31661;DHT22;18267;52.234;7.444;2022-07-15T14:54:41;21.60;91.20
31661;DHT22;18267;52.234;7.444;2022-07-15T14:57:06;21.50;91.10
31661;DHT22;18267;52.234;7.444;2022-07-15T14:59:32;21.50;91.20
31661;DHT22;18267;52.234;7.444;2022-07-15T15:02:03;21.30;90.50
31661;DHT22;18267;52.234;7.444;2022-07-15T15:04:29;21.10;91.00
31661;DHT22;18267;52.234;7.444;2022-07-15T15:06:54;21.20;91.70
31661;DHT22;18267;52.234;7.444;2022-07-15T15:09:20;21.20;91.30
31661;DHT22;18267;52.234;7.444;2022-07-15T15:11:45;21.20;91.00
31661;DHT22;18267;52.234;7.444;2022-07-15T15:14:11;21.10;91.30
31661;DHT22;18267;52.234;7.444;2022-07-15T15:16:36;21.10;91.60
31661;DHT22;18267;52.234;7.444;2022-07-15T15:19:02;21.30;91.90
31661;DHT22;18267;52.234;7.444;2022-07-15T15:21:27;21.40;92.00
31661;DHT22;18267;52.234;7.444;2022-07-15T15:23:53;21.30;91.20
31661;DHT22;18267;52.234;7.444;2022-07-15T15:26:19;21.30;91.50
31661;DHT22;18267;52.234;7.444;2022-07-15T15:28:49;21.30;91.10
31661;DHT22;18267;52.234;7.444;2022-07-15T15:31:16;21.20;91.00
31661;DHT22;18267;52.234;7.444;2022-07-15T15:33:41;21.10;91.60
31661;DHT22;18267;52.234;7.444;2022-07-15T15:36:07;21.10;92.00
31661;DHT22;18267;52.234;7.444;2022-07-15T15:38:32;21.10;91.40
31661;DHT22;18267;52.234;7.444;2022-07-15T15:40:58;21.00;91.20
31661;DHT22;18267;52.234;7.444;2022-07-15T15:43:24;21.00;91.90
31661;DHT22;18267;52.234;7.444;2022-07-15T15:45:50;21.00;91.90
31661;DHT22;18267;52.234;7.444;2022-07-15T15:48:15;20.90;92.20
31661;DHT22;18267;52.234;7.444;2022-07-15T15:50:41;20.90;92.30
31661;DHT22;18267;52.234;7.444;2022-07-15T15:53:06;20.90;92.20
31661;DHT22;18267;52.234;7.444;2022-07-15T15:55:32;20.90;92.10
31661;DHT22;18267;52.234;7.444;2022-07-15T15:57:58;20.80;91.90
31661;DHT22;18267;52.234;7.444;2022-07-15T16:00:41;20.70;92.40
31661;DHT22;18267;52.234;7.444;2022-07-15T16:03:07;20.80;92.60
31661;DHT22;18267;52.234;7.444;2022-07-15T16:05:32;21.00;92.70
31661;DHT22;18267;52.234;7.444;2022-07-15T16:07:58;21.00;92.30